createdAt,value
2018-04-09T00:00:55.296Z,57.09
2018-04-09T00:01:55.285Z,57.38
2018-04-09T00:02:55.249Z,57.28
2018-04-09T00:03:55.223Z,56.99
2018-04-09T00:04:55.201Z,56.83
2018-04-09T00:05:55.185Z,57.31
2018-04-09T00:06:55.157Z,56.81
2018-04-09T00:07:55.132Z,57.09
2018-04-09T00:08:55.110Z,57.09
2018-04-09T00:09:55.094Z,57.09
2018-04-09T00:10:55.060Z,57.09
2018-04-09T00:11:55.049Z,57.09
2018-04-09T00:12:55.018Z,57.19
2018-04-09T00:13:55.000Z,57.28
2018-04-09T00:14:54.974Z,56.99
2018-04-09T00:15:54.958Z,56.52
2018-04-09T00:16:54.935Z,57.09
2018-04-09T00:17:54.903Z,56.71
2018-04-09T00:18:54.884Z,56.23
2018-04-09T00:19:54.857Z,57.09
2018-04-09T00:20:54.833Z,57.09
2018-04-09T00:21:54.806Z,57.09
2018-04-09T00:22:54.791Z,56.99
2018-04-09T00:23:54.771Z,57.09
2018-04-09T00:24:54.737Z,57.09
2018-04-09T00:25:54.730Z,57.19
2018-04-09T00:26:54.696Z,57.19
2018-04-09T00:27:54.680Z,56.99
2018-04-09T00:28:54.652Z,56.90
2018-04-09T00:29:54.632Z,56.90
2018-04-09T00:30:54.608Z,57.09
2018-04-09T00:31:54.585Z,57.28
2018-04-09T00:32:54.569Z,57.19
2018-04-09T00:33:54.530Z,57.28
2018-04-09T00:34:54.550Z,57.09
2018-04-09T00:35:54.494Z,57.09
2018-04-09T00:36:54.470Z,56.90
2018-04-09T00:37:54.444Z,57.19
2018-04-09T00:38:54.418Z,57.76
2018-04-09T00:39:54.405Z,57.09
2018-04-09T00:40:54.379Z,57.09
2018-04-09T00:41:54.350Z,57.95
2018-04-09T00:42:54.333Z,58.24
2018-04-09T00:43:54.303Z,58.24
2018-04-09T00:44:54.288Z,58.15
2018-04-09T00:45:54.265Z,58.12
2018-04-09T00:46:54.227Z,58.12
2018-04-09T00:47:54.220Z,58.12
2018-04-09T00:48:54.181Z,57.83
2018-04-09T00:49:54.168Z,57.45
2018-04-09T00:50:54.190Z,57.35
2018-04-09T00:51:54.127Z,57.54
2018-04-09T00:52:54.098Z,57.26
2018-04-09T00:53:54.069Z,57.26
2018-04-09T00:54:54.047Z,57.64
2018-04-09T00:55:54.027Z,57.54
2018-04-09T00:56:54.005Z,57.54
2018-04-09T00:57:53.981Z,57.73
2018-04-09T00:58:53.955Z,57.45
2018-04-09T00:59:53.945Z,57.45
2018-04-09T01:00:53.908Z,57.73
2018-04-09T01:01:53.887Z,57.64
2018-04-09T01:02:53.873Z,57.64
2018-04-09T01:03:53.841Z,57.64
2018-04-09T01:04:53.817Z,58.12
2018-04-09T01:05:53.789Z,57.92
2018-04-09T01:06:53.776Z,58.12
2018-04-09T01:07:53.741Z,58.31
2018-04-09T01:08:53.726Z,58.12
2018-04-09T01:09:53.702Z,58.31
2018-04-09T01:10:53.686Z,58.02
2018-04-09T01:11:53.657Z,58.37
2018-04-09T01:12:53.628Z,58.28
2018-04-09T01:13:53.612Z,58.59
2018-04-09T01:14:53.592Z,58.56
2018-04-09T01:15:53.562Z,59.45
2018-04-09T01:16:53.534Z,59.17
2018-04-09T01:17:53.515Z,59.27
2018-04-09T01:18:53.486Z,59.55
2018-04-09T01:19:53.471Z,59.45
2018-04-09T01:20:53.437Z,59.84
2018-04-09T01:21:53.425Z,59.65
2018-04-09T01:22:53.396Z,59.52
2018-04-09T01:23:53.378Z,59.62
2018-04-09T01:24:53.350Z,60.38
2018-04-09T01:25:53.327Z,60.19
2018-04-09T01:26:53.305Z,60.38
2018-04-09T01:27:53.288Z,59.52
2018-04-09T01:28:53.255Z,60.00
2018-04-09T01:29:53.245Z,60.00
2018-04-09T01:30:53.203Z,60.00
2018-04-09T01:31:53.193Z,59.81
2018-04-09T01:32:53.171Z,59.81
2018-04-09T01:33:53.141Z,59.62
2018-04-09T01:34:53.124Z,60.00
2018-04-09T01:35:53.088Z,60.48
2018-04-09T01:36:53.078Z,60.48
2018-04-09T01:37:53.044Z,60.77
2018-04-09T01:38:53.025Z,60.29
2018-04-09T01:39:53.005Z,60.67
2018-04-09T01:40:52.981Z,60.67
2018-04-09T01:41:52.956Z,60.77
2018-04-09T01:42:52.926Z,60.96
2018-04-09T01:43:52.914Z,60.67
2018-04-09T01:44:52.884Z,60.48
2018-04-09T01:45:52.863Z,60.48
2018-04-09T01:46:52.832Z,60.67
2018-04-09T01:47:52.811Z,60.19
2018-04-09T01:48:52.788Z,59.91
2018-04-09T01:49:52.764Z,60.00
2018-04-09T01:50:52.745Z,60.19
2018-04-09T01:51:52.720Z,59.62
2018-04-09T01:52:52.687Z,60.10
2018-04-09T01:53:52.677Z,59.81
2018-04-09T01:54:52.657Z,60.58
2018-04-09T01:55:52.631Z,60.38
2018-04-09T01:56:52.598Z,60.58
2018-04-09T01:57:52.579Z,60.38
2018-04-09T01:58:52.558Z,60.77
2018-04-09T01:59:52.531Z,60.96
2018-04-09T02:00:52.511Z,60.48
2018-04-09T02:01:52.488Z,60.77
2018-04-09T02:02:52.461Z,60.58
2018-04-09T02:03:52.432Z,60.48
2018-04-09T02:04:52.424Z,60.77
2018-04-09T02:05:52.398Z,60.77
2018-04-09T02:06:52.368Z,60.67
2018-04-09T02:07:52.347Z,60.77
2018-04-09T02:08:52.328Z,60.58
2018-04-09T02:09:52.290Z,60.00
2018-04-09T02:10:52.276Z,59.91
2018-04-09T02:11:52.242Z,60.10
2018-04-09T02:12:52.255Z,60.00
2018-04-09T02:13:52.200Z,60.19
2018-04-09T02:14:52.180Z,59.62
2018-04-09T02:15:52.151Z,59.52
2018-04-09T02:16:52.138Z,59.62
2018-04-09T02:17:52.118Z,60.19
2018-04-09T02:18:52.083Z,59.72
2018-04-09T02:19:52.061Z,59.91
2018-04-09T02:20:52.032Z,60.00
2018-04-09T02:21:52.010Z,60.10
2018-04-09T02:22:51.988Z,59.81
2018-04-09T02:23:51.968Z,59.91
2018-04-09T02:24:51.936Z,59.81
2018-04-09T02:25:51.921Z,60.00
2018-04-09T02:26:51.894Z,60.19
2018-04-09T02:27:51.878Z,60.00
2018-04-09T02:28:51.847Z,60.10
2018-04-09T02:29:51.823Z,60.29
2018-04-09T02:30:51.816Z,60.58
2018-04-09T02:31:51.784Z,60.29
2018-04-09T02:32:51.756Z,60.26
2018-04-09T02:33:51.730Z,60.38
2018-04-09T02:34:51.707Z,60.16
2018-04-09T02:35:51.688Z,60.16
2018-04-09T02:36:51.662Z,60.19
2018-04-09T02:37:51.632Z,60.64
2018-04-09T02:38:51.616Z,60.67
2018-04-09T02:39:51.588Z,60.48
2018-04-09T02:40:51.565Z,60.86
2018-04-09T02:41:51.544Z,60.77
2018-04-09T02:42:51.533Z,60.45
2018-04-09T02:43:51.490Z,60.29
2018-04-09T02:44:51.463Z,59.97
2018-04-09T02:45:51.452Z,59.97
2018-04-09T02:46:51.424Z,60.35
2018-04-09T02:47:51.398Z,60.26
2018-04-09T02:48:51.371Z,60.55
2018-04-09T02:49:51.370Z,60.45
2018-04-09T02:50:51.331Z,61.31
2018-04-09T02:51:51.315Z,61.02
2018-04-09T02:52:51.279Z,61.31
2018-04-09T02:53:51.261Z,61.31
2018-04-09T02:54:51.238Z,61.12
2018-04-09T02:55:51.219Z,61.22
2018-04-09T02:56:51.188Z,61.22
2018-04-09T02:57:51.164Z,60.93
2018-04-09T02:58:51.164Z,61.22
2018-04-09T02:59:51.117Z,61.02
2018-04-09T03:00:51.911Z,61.41
2018-04-09T03:01:51.068Z,60.93
2018-04-09T03:02:51.055Z,60.83
2018-04-09T03:03:51.023Z,60.35
2018-04-09T03:04:50.993Z,60.64
2018-04-09T03:05:50.978Z,60.45
2018-04-09T03:06:50.945Z,60.83
2018-04-09T03:07:51.513Z,60.16
2018-04-09T03:08:50.906Z,59.88
2018-04-09T03:09:50.881Z,59.88
2018-04-09T03:10:50.859Z,59.78
2018-04-09T03:11:50.833Z,59.97
2018-04-09T03:12:50.815Z,60.06
2018-04-09T03:13:50.789Z,59.97
2018-04-09T03:14:50.764Z,60.16
2018-04-09T03:15:50.734Z,60.16
2018-04-09T03:16:50.717Z,60.35
2018-04-09T03:17:50.705Z,59.49
2018-04-09T03:18:50.668Z,59.59
2018-04-09T03:19:50.645Z,59.49
2018-04-09T03:20:50.618Z,59.49
2018-04-09T03:21:50.597Z,59.59
2018-04-09T03:22:50.574Z,59.59
2018-04-09T03:23:50.547Z,59.59
2018-04-09T03:24:50.524Z,59.40
2018-04-09T03:25:50.496Z,59.40
2018-04-09T03:26:50.472Z,59.40
2018-04-09T03:27:50.460Z,59.49
2018-04-09T03:28:50.431Z,59.59
2018-04-09T03:29:50.410Z,59.78
2018-04-09T03:30:50.385Z,59.49
2018-04-09T03:31:50.355Z,59.78
2018-04-09T03:32:50.337Z,59.49
2018-04-09T03:33:50.339Z,59.40
2018-04-09T03:34:50.298Z,59.69
2018-04-09T03:35:50.262Z,59.59
2018-04-09T03:36:50.237Z,59.49
2018-04-09T03:37:50.220Z,59.49
2018-04-09T03:38:50.195Z,59.69
2018-04-09T03:39:50.166Z,59.69
2018-04-09T03:40:50.146Z,60.06
2018-04-09T03:41:50.124Z,60.06
2018-04-09T03:42:50.104Z,59.97
2018-04-09T03:43:50.068Z,60.06
2018-04-09T03:44:50.044Z,59.97
2018-04-09T03:45:50.023Z,59.97
2018-04-09T03:46:50.005Z,60.55
2018-04-09T03:47:49.975Z,60.55
2018-04-09T03:48:49.953Z,60.74
2018-04-09T03:49:49.938Z,60.93
2018-04-09T03:50:49.911Z,60.93
2018-04-09T03:51:49.879Z,61.02
2018-04-09T03:52:49.864Z,61.12
2018-04-09T03:53:49.833Z,61.22
2018-04-09T03:54:49.818Z,61.12
2018-04-09T03:55:49.786Z,61.22
2018-04-09T03:56:49.769Z,61.22
2018-04-09T03:57:49.743Z,61.31
2018-04-09T03:58:49.716Z,61.22
2018-04-09T03:59:49.689Z,61.02
2018-04-09T04:00:49.675Z,61.51
2018-04-09T04:01:49.645Z,61.22
2018-04-09T04:02:49.646Z,61.79
2018-04-09T04:03:49.597Z,61.98
2018-04-09T04:04:49.580Z,62.14
2018-04-09T04:05:49.548Z,61.66
2018-04-09T04:06:49.531Z,62.08
2018-04-09T04:07:49.498Z,62.04
2018-04-09T04:08:49.484Z,62.14
2018-04-09T04:09:49.455Z,61.47
2018-04-09T04:10:49.431Z,61.28
2018-04-09T04:11:49.406Z,61.47
2018-04-09T04:12:49.389Z,60.90
2018-04-09T04:13:49.358Z,60.35
2018-04-09T04:14:49.342Z,60.45
2018-04-09T04:15:49.311Z,60.71
2018-04-09T04:16:49.297Z,60.42
2018-04-09T04:17:49.262Z,60.71
2018-04-09T04:18:49.250Z,60.99
2018-04-09T04:19:49.270Z,60.99
2018-04-09T04:20:49.341Z,61.19
2018-04-09T04:21:49.164Z,60.90
2018-04-09T04:22:49.146Z,61.09
2018-04-09T04:23:49.121Z,61.28
2018-04-09T04:24:49.097Z,61.19
2018-04-09T04:25:49.068Z,60.90
2018-04-09T04:26:49.052Z,61.09
2018-04-09T04:27:49.026Z,60.99
2018-04-09T04:28:49.014Z,61.38
2018-04-09T04:29:48.980Z,60.90
2018-04-09T04:30:48.995Z,61.09
2018-04-09T04:31:48.931Z,61.28
2018-04-09T04:32:48.902Z,61.19
2018-04-09T04:33:48.899Z,61.19
2018-04-09T04:34:48.862Z,61.09
2018-04-09T04:35:48.835Z,60.99
2018-04-09T04:36:48.809Z,61.47
2018-04-09T04:37:48.789Z,60.99
2018-04-09T04:38:48.768Z,60.80
2018-04-09T04:39:48.735Z,60.71
2018-04-09T04:40:48.734Z,60.52
2018-04-09T04:41:48.688Z,60.61
2018-04-09T04:42:48.669Z,60.61
2018-04-09T04:43:48.638Z,60.71
2018-04-09T04:44:48.623Z,60.71
2018-04-09T04:45:48.596Z,60.61
2018-04-09T04:46:48.578Z,60.42
2018-04-09T04:47:48.543Z,60.42
2018-04-09T04:48:48.523Z,60.42
2018-04-09T04:49:48.540Z,60.80
2018-04-09T04:50:48.483Z,60.99
2018-04-09T04:51:48.450Z,60.71
2018-04-09T04:52:48.433Z,61.19
2018-04-09T04:53:48.401Z,60.90
2018-04-09T04:54:48.384Z,61.85
2018-04-09T04:55:48.363Z,62.30
2018-04-09T04:56:48.328Z,62.30
2018-04-09T04:57:48.313Z,62.30
2018-04-09T04:58:48.284Z,62.30
2018-04-09T04:59:48.263Z,62.40
2018-04-09T05:00:48.235Z,62.49
2018-04-09T05:01:48.214Z,62.40
2018-04-09T05:02:48.189Z,62.21
2018-04-09T05:03:48.164Z,62.71
2018-04-09T05:04:48.141Z,62.33
2018-04-09T05:05:48.112Z,62.43
2018-04-09T05:06:48.092Z,62.40
2018-04-09T05:07:48.067Z,62.24
2018-04-09T05:08:48.039Z,62.14
2018-04-09T05:09:48.034Z,62.11
2018-04-09T05:10:48.004Z,62.62
2018-04-09T05:11:47.997Z,62.43
2018-04-09T05:12:47.956Z,62.52
2018-04-09T05:13:47.925Z,61.66
2018-04-09T05:14:47.902Z,62.14
2018-04-09T05:15:47.882Z,61.66
2018-04-09T05:16:47.858Z,61.47
2018-04-09T05:17:47.831Z,61.47
2018-04-09T05:18:47.798Z,61.19
2018-04-09T05:19:47.782Z,61.19
2018-04-09T05:20:47.758Z,61.19
2018-04-09T05:21:47.737Z,61.09
2018-04-09T05:22:47.702Z,60.71
2018-04-09T05:23:47.692Z,60.13
2018-04-09T05:24:47.667Z,60.42
2018-04-09T05:25:47.637Z,60.71
2018-04-09T05:26:47.615Z,60.61
2018-04-09T05:27:47.588Z,60.33
2018-04-09T05:28:47.563Z,60.42
2018-04-09T05:29:47.543Z,60.04
2018-04-09T05:30:47.517Z,60.71
2018-04-09T05:31:47.500Z,60.35
2018-04-09T05:32:47.469Z,60.35
2018-04-09T05:33:47.445Z,60.90
2018-04-09T05:34:47.424Z,61.09
2018-04-09T05:35:47.401Z,61.28
2018-04-09T05:36:47.377Z,61.28
2018-04-09T05:37:47.343Z,61.28
2018-04-09T05:38:47.371Z,61.19
2018-04-09T05:39:47.301Z,61.47
2018-04-09T05:40:47.281Z,61.28
2018-04-09T05:41:47.262Z,61.28
2018-04-09T05:42:47.228Z,61.47
2018-04-09T05:43:47.203Z,61.69
2018-04-09T05:44:47.183Z,61.19
2018-04-09T05:45:47.158Z,61.66
2018-04-09T05:46:47.139Z,61.76
2018-04-09T05:47:47.105Z,61.79
2018-04-09T05:48:47.095Z,61.57
2018-04-09T05:49:47.059Z,61.22
2018-04-09T05:50:47.040Z,61.31
2018-04-09T05:51:47.016Z,61.31
2018-04-09T05:52:46.988Z,61.02
2018-04-09T05:53:46.968Z,61.22
2018-04-09T05:54:46.948Z,61.41
2018-04-09T05:55:46.927Z,61.12
2018-04-09T05:56:46.892Z,60.83
2018-04-09T05:57:46.871Z,60.83
2018-04-09T05:58:46.845Z,60.45
2018-04-09T05:59:46.830Z,60.74
2018-04-09T06:00:46.799Z,60.74
2018-04-09T06:01:46.778Z,60.16
2018-04-09T06:02:46.751Z,60.64
2018-04-09T06:03:46.741Z,60.55
2018-04-09T06:04:46.705Z,60.00
2018-04-09T06:05:46.682Z,59.62
2018-04-09T06:06:46.657Z,60.00
2018-04-09T06:07:46.640Z,60.58
2018-04-09T06:08:46.622Z,60.96
2018-04-09T06:09:46.605Z,60.55
2018-04-09T06:10:46.596Z,60.74
2018-04-09T06:11:46.543Z,60.67
2018-04-09T06:12:46.543Z,60.29
2018-04-09T06:13:46.492Z,60.00
2018-04-09T06:14:46.488Z,59.81
2018-04-09T06:15:46.454Z,59.72
2018-04-09T06:16:46.426Z,59.81
2018-04-09T06:17:46.394Z,60.19
2018-04-09T06:18:46.372Z,59.52
2018-04-09T06:19:46.352Z,59.43
2018-04-09T06:20:46.325Z,59.81
2018-04-09T06:21:46.299Z,59.81
2018-04-09T06:22:46.274Z,59.43
2018-04-09T06:23:46.261Z,59.62
2018-04-09T06:24:46.231Z,59.55
2018-04-09T06:25:46.215Z,58.69
2018-04-09T06:26:46.181Z,58.40
2018-04-09T06:27:46.165Z,58.31
2018-04-09T06:28:46.138Z,58.12
2018-04-09T06:29:46.111Z,58.12
2018-04-09T06:30:46.091Z,58.31
2018-04-09T06:31:46.071Z,58.40
2018-04-09T06:32:46.037Z,58.22
2018-04-09T06:33:46.020Z,58.02
2018-04-09T06:34:45.995Z,58.34
2018-04-09T06:35:45.975Z,58.05
2018-04-09T06:36:45.948Z,58.05
2018-04-09T06:37:45.934Z,57.57
2018-04-09T06:38:45.902Z,57.28
2018-04-09T06:39:45.884Z,57.19
2018-04-09T06:40:45.856Z,56.61
2018-04-09T06:41:45.839Z,57.19
2018-04-09T06:42:45.814Z,56.52
2018-04-09T06:43:45.788Z,56.99
2018-04-09T06:44:45.784Z,56.90
2018-04-09T06:45:45.742Z,57.12
2018-04-09T06:46:45.714Z,57.31
2018-04-09T06:47:45.719Z,57.03
2018-04-09T06:48:45.682Z,57.50
2018-04-09T06:49:45.643Z,56.64
2018-04-09T06:50:45.653Z,56.83
2018-04-09T06:51:45.598Z,56.64
2018-04-09T06:52:45.574Z,56.64
2018-04-09T06:53:45.556Z,56.16
2018-04-09T06:54:45.531Z,56.45
2018-04-09T06:55:45.506Z,55.78
2018-04-09T06:56:45.486Z,55.68
2018-04-09T06:57:45.470Z,55.58
2018-04-09T06:58:45.443Z,55.78
2018-04-09T06:59:45.414Z,56.32
2018-04-09T07:00:45.400Z,56.61
2018-04-09T07:01:45.363Z,56.32
2018-04-09T07:02:45.355Z,56.35
2018-04-09T07:03:45.331Z,56.04
2018-04-09T07:04:45.295Z,56.64
2018-04-09T07:05:45.301Z,55.75
2018-04-09T07:06:45.256Z,56.52
2018-04-09T07:07:45.233Z,56.45
2018-04-09T07:08:45.208Z,56.42
2018-04-09T07:09:45.190Z,55.87
2018-04-09T07:10:45.174Z,56.52
2018-04-09T07:11:45.133Z,56.42
2018-04-09T07:12:45.116Z,57.19
2018-04-09T07:13:45.086Z,56.99
2018-04-09T07:14:45.076Z,57.19
2018-04-09T07:15:45.046Z,56.99
2018-04-09T07:16:45.019Z,57.19
2018-04-09T07:17:45.004Z,57.19
2018-04-09T07:18:44.982Z,58.50
2018-04-09T07:19:44.955Z,58.02
2018-04-09T07:20:44.929Z,58.59
2018-04-09T07:21:44.911Z,59.36
2018-04-09T07:22:44.890Z,59.36
2018-04-09T07:23:44.865Z,58.69
2018-04-09T07:24:44.835Z,58.81
2018-04-09T07:25:44.820Z,58.62
2018-04-09T07:26:44.793Z,58.05
2018-04-09T07:27:44.771Z,58.15
2018-04-09T07:28:44.749Z,58.24
2018-04-09T07:29:44.732Z,57.86
2018-04-09T07:30:44.705Z,58.34
2018-04-09T07:31:44.681Z,58.24
2018-04-09T07:32:44.655Z,57.86
2018-04-09T07:33:44.631Z,58.53
2018-04-09T07:34:44.614Z,58.34
2018-04-09T07:35:44.589Z,58.53
2018-04-09T07:36:44.562Z,58.34
2018-04-09T07:37:44.543Z,58.34
2018-04-09T07:38:44.522Z,58.15
2018-04-09T07:39:44.493Z,58.24
2018-04-09T07:40:44.495Z,58.53
2018-04-09T07:41:44.450Z,58.53
2018-04-09T07:42:44.431Z,58.24
2018-04-09T07:43:44.401Z,57.50
2018-04-09T07:44:44.381Z,57.79
2018-04-09T07:45:44.356Z,57.41
2018-04-09T07:46:44.338Z,57.21
2018-04-09T07:47:44.308Z,57.60
2018-04-09T07:48:44.293Z,57.43
2018-04-09T07:49:44.267Z,57.24
2018-04-09T07:50:44.245Z,57.06
2018-04-09T07:51:44.262Z,56.76
2018-04-09T07:52:44.208Z,56.67
2018-04-09T07:53:44.169Z,56.48
2018-04-09T07:54:44.158Z,56.76
2018-04-09T07:55:44.141Z,56.57
2018-04-09T07:56:44.103Z,57.53
2018-04-09T07:57:44.080Z,57.24
2018-04-09T07:58:44.061Z,56.22
2018-04-09T07:59:44.039Z,55.64
2018-04-09T08:00:44.015Z,55.55
2018-04-09T08:01:43.992Z,55.74
2018-04-09T08:02:43.964Z,55.93
2018-04-09T08:03:43.948Z,55.45
2018-04-09T08:04:43.928Z,54.78
2018-04-09T08:05:43.902Z,54.88
2018-04-09T08:06:43.875Z,55.64
2018-04-09T08:07:43.860Z,55.55
2018-04-09T08:08:43.830Z,55.74
2018-04-09T08:09:43.824Z,55.26
2018-04-09T08:10:43.794Z,54.97
2018-04-09T08:11:43.769Z,54.80
2018-04-09T08:12:43.744Z,55.35
2018-04-09T08:13:43.723Z,54.80
2018-04-09T08:14:43.708Z,54.42
2018-04-09T08:15:43.675Z,54.52
2018-04-09T08:16:43.654Z,54.52
2018-04-09T08:17:43.632Z,53.87
2018-04-09T08:18:43.605Z,53.30
2018-04-09T08:19:43.587Z,53.87
2018-04-09T08:20:43.566Z,53.49
2018-04-09T08:21:43.542Z,53.58
2018-04-09T08:22:43.520Z,53.39
2018-04-09T08:23:43.506Z,53.39
2018-04-09T08:24:43.478Z,52.55
2018-04-09T08:25:43.454Z,52.17
2018-04-09T08:26:43.440Z,52.84
2018-04-09T08:27:43.404Z,52.36
2018-04-09T08:28:43.382Z,52.24
2018-04-09T08:29:43.375Z,53.01
2018-04-09T08:30:43.345Z,53.36
2018-04-09T08:31:43.323Z,54.35
2018-04-09T08:32:43.299Z,53.97
2018-04-09T08:33:43.279Z,53.78
2018-04-09T08:34:43.262Z,54.45
2018-04-09T08:35:43.232Z,54.35
2018-04-09T08:36:43.219Z,54.64
2018-04-09T08:37:43.191Z,54.35
2018-04-09T08:38:43.168Z,54.55
2018-04-09T08:39:43.141Z,54.25
2018-04-09T08:40:43.124Z,54.25
2018-04-09T08:41:43.104Z,54.47
2018-04-09T08:42:43.078Z,53.70
2018-04-09T08:43:43.064Z,53.80
2018-04-09T08:44:43.047Z,53.64
2018-04-09T08:45:43.018Z,53.54
2018-04-09T08:46:42.999Z,53.45
2018-04-09T08:47:42.971Z,52.58
2018-04-09T08:48:42.945Z,52.77
2018-04-09T08:49:42.929Z,52.97
2018-04-09T08:50:42.921Z,52.68
2018-04-09T08:51:42.888Z,53.25
2018-04-09T08:52:42.862Z,53.06
2018-04-09T08:53:42.847Z,52.58
2018-04-09T08:54:42.813Z,52.97
2018-04-09T08:55:42.803Z,53.35
2018-04-09T08:56:42.781Z,52.58
2018-04-09T08:57:42.762Z,51.14
2018-04-09T08:58:42.734Z,51.04
2018-04-09T08:59:42.717Z,50.08
2018-04-09T09:00:42.695Z,49.99
2018-04-09T09:01:42.686Z,49.89
2018-04-09T09:02:42.646Z,50.08
2018-04-09T09:03:42.631Z,50.76
2018-04-09T09:04:42.611Z,50.08
2018-04-09T09:05:42.587Z,50.78
2018-04-09T09:06:42.563Z,49.72
2018-04-09T09:07:42.546Z,48.76
2018-04-09T09:08:42.518Z,48.93
2018-04-09T09:09:42.495Z,48.83
2018-04-09T09:10:42.475Z,48.66
2018-04-09T09:11:42.462Z,49.69
2018-04-09T09:12:42.434Z,49.43
2018-04-09T09:13:42.413Z,49.43
2018-04-09T09:14:42.392Z,48.69
2018-04-09T09:15:42.370Z,48.88
2018-04-09T09:16:42.357Z,48.79
2018-04-09T09:17:42.331Z,48.59
2018-04-09T09:18:42.298Z,48.52
2018-04-09T09:19:42.290Z,48.23
2018-04-09T09:20:42.260Z,47.75
2018-04-09T09:21:42.243Z,47.85
2018-04-09T09:22:42.244Z,47.08
2018-04-09T09:23:42.204Z,46.50
2018-04-09T09:24:42.182Z,47.46
2018-04-09T09:25:42.157Z,47.34
2018-04-09T09:26:42.133Z,47.82
2018-04-09T09:27:42.117Z,48.03
2018-04-09T09:28:42.239Z,47.75
2018-04-09T09:29:42.073Z,48.03
2018-04-09T09:30:42.052Z,47.75
2018-04-09T09:31:42.025Z,47.75
2018-04-09T09:32:42.010Z,47.85
2018-04-09T09:33:41.987Z,47.94
2018-04-09T09:34:41.974Z,48.03
2018-04-09T09:35:41.948Z,47.94
2018-04-09T09:36:41.926Z,48.13
2018-04-09T09:37:41.900Z,48.23
2018-04-09T09:38:41.894Z,48.71
2018-04-09T09:39:41.862Z,48.54
2018-04-09T09:40:41.839Z,47.58
2018-04-09T09:41:41.828Z,47.58
2018-04-09T09:42:41.800Z,47.17
2018-04-09T09:43:41.785Z,47.36
2018-04-09T09:44:41.758Z,47.65
2018-04-09T09:45:41.740Z,47.27
2018-04-09T09:46:41.713Z,46.98
2018-04-09T09:47:41.696Z,47.17
2018-04-09T09:48:41.665Z,46.88
2018-04-09T09:49:41.656Z,45.92
2018-04-09T09:50:41.629Z,47.05
2018-04-09T09:51:41.616Z,47.82
2018-04-09T09:52:41.595Z,47.82
2018-04-09T09:53:41.571Z,47.53
2018-04-09T09:54:41.544Z,47.44
2018-04-09T09:55:41.523Z,47.05
2018-04-09T09:56:41.509Z,47.72
2018-04-09T09:57:41.518Z,48.59
2018-04-09T09:58:41.468Z,48.69
2018-04-09T09:59:41.448Z,48.79
2018-04-09T10:00:41.426Z,48.59
2018-04-09T10:01:41.417Z,48.69
2018-04-09T10:02:41.379Z,48.59
2018-04-09T10:03:41.362Z,48.88
2018-04-09T10:04:41.342Z,49.65
2018-04-09T10:05:41.315Z,48.40
2018-04-09T10:06:41.298Z,48.02
2018-04-09T10:07:41.289Z,47.15
2018-04-09T10:08:41.259Z,47.65
2018-04-09T10:09:41.237Z,47.82
2018-04-09T10:10:41.214Z,47.24
2018-04-09T10:11:41.197Z,47.63
2018-04-09T10:12:41.174Z,47.53
2018-04-09T10:13:41.144Z,47.44
2018-04-09T10:14:41.126Z,47.15
2018-04-09T10:15:41.103Z,46.69
2018-04-09T10:16:41.084Z,46.88
2018-04-09T10:17:41.070Z,46.11
2018-04-09T10:18:41.040Z,45.36
2018-04-09T10:19:41.028Z,45.65
2018-04-09T10:20:41.218Z,45.65
2018-04-09T10:21:41.043Z,45.84
2018-04-09T10:22:41.000Z,46.23
2018-04-09T10:23:40.948Z,46.06
2018-04-09T10:24:40.981Z,45.48
2018-04-09T10:25:40.894Z,45.00
2018-04-09T10:26:40.903Z,44.52
2018-04-09T10:27:40.858Z,43.85
2018-04-09T10:28:40.832Z,43.96
2018-04-09T10:29:40.852Z,43.77
2018-04-09T10:30:40.789Z,44.64
2018-04-09T10:31:40.830Z,44.15
2018-04-09T10:32:40.773Z,43.87
2018-04-09T10:33:40.732Z,43.79
2018-04-09T10:34:40.712Z,43.98
2018-04-09T10:35:40.750Z,44.08
2018-04-09T10:36:40.708Z,43.79
2018-04-09T10:37:40.649Z,43.21
2018-04-09T10:38:40.700Z,43.12
2018-04-09T10:39:40.609Z,43.43
2018-04-09T10:40:40.588Z,43.52
2018-04-09T10:41:40.619Z,43.04
2018-04-09T10:42:40.550Z,43.14
2018-04-09T10:43:40.527Z,42.94
2018-04-09T10:44:40.532Z,42.85
2018-04-09T10:45:40.558Z,42.18
2018-04-09T10:46:40.470Z,42.36
2018-04-09T10:47:40.456Z,43.14
2018-04-09T10:48:40.515Z,43.24
2018-04-09T10:49:40.423Z,42.18
2018-04-09T10:50:40.446Z,42.66
2018-04-09T10:51:40.363Z,42.36
2018-04-09T10:52:40.338Z,41.98
2018-04-09T10:53:40.368Z,41.78
2018-04-09T10:54:40.341Z,41.60
2018-04-09T10:55:40.364Z,41.96
2018-04-09T10:56:40.339Z,43.02
2018-04-09T10:57:40.244Z,42.83
2018-04-09T10:58:40.282Z,43.50
2018-04-09T10:59:40.266Z,42.15
2018-04-09T11:00:40.199Z,43.21
2018-04-09T11:01:40.169Z,43.60
2018-04-09T11:02:40.154Z,43.24
2018-04-09T11:03:40.191Z,43.24
2018-04-09T11:04:40.162Z,42.75
2018-04-09T11:05:40.145Z,41.98
2018-04-09T11:06:40.065Z,41.69
2018-04-09T11:07:40.042Z,41.98
2018-04-09T11:08:40.019Z,41.20
2018-04-09T11:09:40.007Z,42.08
2018-04-09T11:10:39.989Z,42.08
2018-04-09T11:11:39.997Z,42.18
2018-04-09T11:12:39.947Z,41.77
2018-04-09T11:13:39.967Z,41.19
2018-04-09T11:14:39.908Z,40.90
2018-04-09T11:15:39.883Z,41.09
2018-04-09T11:16:39.867Z,42.05
2018-04-09T11:17:39.847Z,42.05
2018-04-09T11:18:39.833Z,41.77
2018-04-09T11:19:39.809Z,42.15
2018-04-09T11:20:39.799Z,42.05
2018-04-09T11:21:39.964Z,42.05
2018-04-09T11:22:39.751Z,42.08
2018-04-09T11:23:39.975Z,42.46
2018-04-09T11:24:39.733Z,41.98
2018-04-09T11:25:39.741Z,42.15
2018-04-09T11:26:39.774Z,42.56
2018-04-09T11:27:39.734Z,43.24
2018-04-09T11:28:39.701Z,43.52
2018-04-09T11:29:39.624Z,43.14
2018-04-09T11:30:39.700Z,42.66
2018-04-09T11:31:39.624Z,42.85
2018-04-09T11:32:39.603Z,43.04
2018-04-09T11:33:39.534Z,43.04
2018-04-09T11:34:39.587Z,42.75
2018-04-09T11:35:39.541Z,43.41
2018-04-09T11:36:39.510Z,43.02
2018-04-09T11:37:39.491Z,43.02
2018-04-09T11:38:39.581Z,43.41
2018-04-09T11:39:39.458Z,43.89
2018-04-09T11:40:39.497Z,43.52
2018-04-09T11:41:39.418Z,43.52
2018-04-09T11:42:39.442Z,43.33
2018-04-09T11:43:39.365Z,43.43
2018-04-09T11:44:39.372Z,43.72
2018-04-09T11:45:39.466Z,43.81
2018-04-09T11:46:39.369Z,44.29
2018-04-09T11:47:39.311Z,43.81
2018-04-09T11:48:39.240Z,44.78
2018-04-09T11:49:39.254Z,44.32
2018-04-09T11:50:39.353Z,43.74
2018-04-09T11:51:39.262Z,43.45
2018-04-09T11:52:39.192Z,43.06
2018-04-09T11:53:39.203Z,43.16
2018-04-09T11:54:39.169Z,43.43
2018-04-09T11:55:39.173Z,43.60
2018-04-09T11:56:39.117Z,43.72
2018-04-09T11:57:39.118Z,43.98
2018-04-09T11:58:39.140Z,44.20
2018-04-09T11:59:39.077Z,43.72
2018-04-09T12:00:39.103Z,43.72
2018-04-09T12:01:39.027Z,43.24
2018-04-09T12:02:39.002Z,43.33
2018-04-09T12:03:38.979Z,43.45
2018-04-09T12:04:38.918Z,43.35
2018-04-09T12:05:39.958Z,43.35
2018-04-09T12:06:39.033Z,43.45
2018-04-09T12:07:38.878Z,43.54
2018-04-09T12:08:38.864Z,43.57
2018-04-09T12:09:38.930Z,42.89
2018-04-09T12:10:38.879Z,42.41
2018-04-09T12:11:38.831Z,42.21
2018-04-09T12:12:38.814Z,42.02
2018-04-09T12:13:38.778Z,41.35
2018-04-09T12:14:38.789Z,41.05
2018-04-09T12:15:38.790Z,41.23
2018-04-09T12:16:38.786Z,41.35
2018-04-09T12:17:38.667Z,42.00
2018-04-09T12:18:38.751Z,42.10
2018-04-09T12:19:38.678Z,42.00
2018-04-09T12:20:38.691Z,42.39
2018-04-09T12:21:38.650Z,42.58
2018-04-09T12:22:38.655Z,42.29
2018-04-09T12:23:38.554Z,42.12
2018-04-09T12:24:38.533Z,42.02
2018-04-09T12:25:38.511Z,42.60
2018-04-09T12:26:38.498Z,42.10
2018-04-09T12:27:38.464Z,42.12
2018-04-09T12:28:38.471Z,41.83
2018-04-09T12:29:38.461Z,42.02
2018-04-09T12:30:38.475Z,41.63
2018-04-09T12:31:38.397Z,41.46
2018-04-09T12:32:38.449Z,41.36
2018-04-09T12:33:38.374Z,41.46
2018-04-09T12:34:38.489Z,40.78
2018-04-09T12:35:38.319Z,40.77
2018-04-09T12:36:38.370Z,40.96
2018-04-09T12:37:38.275Z,42.04
2018-04-09T12:38:38.298Z,42.24
2018-04-09T12:39:38.287Z,41.66
2018-04-09T12:40:38.251Z,41.85
2018-04-09T12:41:38.245Z,41.97
2018-04-09T12:42:38.240Z,41.48
2018-04-09T12:43:38.175Z,41.19
2018-04-09T12:44:38.198Z,41.02
2018-04-09T12:45:38.194Z,40.71
2018-04-09T12:46:38.146Z,40.44
2018-04-09T12:47:38.081Z,40.73
2018-04-09T12:48:38.076Z,40.25
2018-04-09T12:49:38.101Z,40.15
2018-04-09T12:50:38.119Z,39.95
2018-04-09T12:51:38.012Z,40.05
2018-04-09T12:52:38.037Z,40.44